Time;durP1;ratioP1;P1;durP2;ratioP2;P2;SDS_P1;SDS_P2;PMS_P1;PMS_P2;Temp;Humidity;BMP_temperature;BMP_pressure;BME280_temperature;BME280_humidity;BME280_pressure;Samples;Min_cycle;Max_cycle;Signal;HPM_P1;HPM_P2
2022/05/23 00:02:07;;;;;;;3.27;3.07;;;;;;;25.03;nan;94098.31;4730310;30;20231;-74
2022/05/23 00:04:33;;;;;;;3.60;3.30;;;;;;;25.35;nan;94099.28;4730063;30;20438;-75
2022/05/23 00:06:59;;;;;;;3.80;3.60;;;;;;;25.46;nan;94097.97;4759252;30;20955;-74
2022/05/23 00:09:26;;;;;;;4.67;3.47;;;;;;;25.37;nan;94102.47;4757365;30;20450;-73
2022/05/23 00:11:52;;;;;;;4.00;3.13;;;;;;;25.30;nan;94091.34;4763821;30;20195;-75
2022/05/23 00:14:19;;;;;;;4.60;2.77;;;;;;;25.24;nan;94095.25;4754638;30;20450;-74
2022/05/23 00:16:47;;;;;;;3.30;3.03;;;;;;;25.31;nan;94101.00;4748684;30;20453;-74
2022/05/23 00:19:14;;;;;;;3.17;2.67;;;;;;;25.29;nan;94095.16;4763422;30;20433;-75
2022/05/23 00:21:41;;;;;;;3.23;3.10;;;;;;;25.13;nan;94091.94;4747563;30;20448;-74
2022/05/23 00:24:08;;;;;;;3.53;3.20;;;;;;;25.29;nan;94095.16;4745783;30;20494;-75
2022/05/23 00:26:34;;;;;;;5.93;3.30;;;;;;;25.27;nan;94087.41;4760263;30;20446;-74
2022/05/23 00:29:00;;;;;;;3.67;3.37;;;;;;;25.18;nan;94094.53;4763254;30;20461;-74
2022/05/23 00:31:25;;;;;;;3.93;3.63;;;;;;;25.19;nan;94095.31;4762887;30;20485;-76
2022/05/23 00:36:35;;;;;;;3.20;3.00;;;;;;;25.25;nan;94078.06;4749852;30;20218;-75
2022/05/23 00:39:02;;;;;;;3.77;3.57;;;;;;;25.18;nan;94088.38;4739916;30;20429;-74
2022/05/23 00:44:32;;;;;;;3.40;3.20;;;;;;;24.68;nan;94087.22;4758338;30;20480;-75
2022/05/23 00:47:03;;;;;;;2.87;2.77;;;;;;;24.90;nan;94093.75;4748361;30;20445;-74
2022/05/23 00:49:34;;;;;;;4.23;3.93;;;;;;;24.93;nan;94090.50;4747181;30;20477;-75
2022/05/23 00:52:05;;;;;;;4.43;4.13;;;;;;;25.01;nan;94097.03;4762950;30;20489;-74
2022/05/23 00:54:37;;;;;;;3.10;2.77;;;;;;;24.86;nan;94092.78;4760563;30;20468;-75
2022/05/23 00:57:04;;;;;;;3.37;3.17;;;;;;;24.09;nan;94092.25;4747426;30;20487;-75
2022/05/23 00:59:32;;;;;;;5.17;3.97;;;;;;;24.46;nan;94100.44;4762650;30;20433;-75
2022/05/23 01:02:01;;;;;;;6.27;3.57;;;;;;;24.25;nan;94095.44;4746532;30;20541;-75
2022/05/23 01:04:28;;;;;;;3.17;2.90;;;;;;;24.42;nan;94096.78;4755718;30;20473;-75
2022/05/23 01:06:54;;;;;;;4.03;3.67;;;;;;;24.16;nan;94097.22;4766366;30;20452;-75
2022/05/23 01:09:25;;;;;;;4.00;3.10;;;;;;;24.10;nan;94093.81;4776632;30;20434;-74
2022/05/23 01:11:52;;;;;;;9.83;4.40;;;;;;;24.07;nan;94094.41;4761322;30;20208;-74
2022/05/23 01:14:17;;;;;;;3.50;3.30;;;;;;;23.61;nan;94091.63;4749483;30;20469;-75
2022/05/23 01:16:43;;;;;;;3.50;3.20;;;;;;;24.26;nan;94091.66;4762807;30;20468;-75
2022/05/23 01:19:08;;;;;;;3.70;3.40;;;;;;;24.01;nan;94092.91;4749955;30;20550;-75
2022/05/23 01:21:46;;;;;;;3.83;3.63;;;;;;;23.55;nan;94089.03;4749604;30;20263;-75
2022/05/23 01:24:14;;;;;;;3.70;3.50;;;;;;;24.42;nan;94084.19;4762021;30;20191;-75
2022/05/23 01:26:39;;;;;;;3.90;3.70;;;;;;;24.31;nan;94077.44;4761801;30;20480;-75
2022/05/23 01:29:13;;;;;;;4.80;3.70;;;;;;;24.36;nan;94075.47;4765308;30;20461;-75
2022/05/23 01:31:40;;;;;;;3.97;3.77;;;;;;;24.08;nan;94076.50;4753665;30;20227;-75
2022/05/23 01:34:05;;;;;;;3.77;3.30;;;;;;;23.82;nan;94076.91;4758557;30;20449;-74
2022/05/23 01:36:31;;;;;;;3.83;3.63;;;;;;;24.11;nan;94079.38;4750728;30;20446;-75
2022/05/23 01:38:56;;;;;;;3.77;3.40;;;;;;;23.81;nan;94074.50;4747886;30;20263;-75
2022/05/23 01:41:21;;;;;;;4.70;4.00;;;;;;;24.51;nan;94068.22;4764156;30;20274;-74
2022/05/23 01:43:47;;;;;;;3.47;3.20;;;;;;;24.46;nan;94069.13;4762641;30;20214;-75
2022/05/23 01:46:13;;;;;;;5.13;4.03;;;;;;;24.06;nan;94070.66;4765787;30;20214;-74
2022/05/23 01:48:38;;;;;;;3.90;3.60;;;;;;;23.70;nan;94076.53;4756222;30;20240;-73
2022/05/23 01:51:03;;;;;;;3.70;3.50;;;;;;;23.65;nan;94076.59;4747921;30;20232;-75
2022/05/23 01:53:29;;;;;;;3.87;3.60;;;;;;;23.53;nan;94082.41;4752273;30;20259;-75
2022/05/23 01:55:55;;;;;;;4.30;4.00;;;;;;;23.35;nan;94081.31;4765863;30;20741;-75
2022/05/23 02:01:13;;;;;;;4.03;3.73;;;;;;;22.83;nan;94083.03;4765098;30;20190;-75
2022/05/23 02:01:15;;;;;;;4.30;3.90;;;;;;;23.08;nan;94076.59;4764607;30;20266;-75
2022/05/23 02:03:46;;;;;;;4.70;4.30;;;;;;;23.67;nan;94074.44;4748037;30;20439;-75
2022/05/23 02:06:12;;;;;;;3.97;3.77;;;;;;;24.14;nan;94072.66;4762833;30;20796;-76
2022/05/23 02:08:38;;;;;;;4.40;4.00;;;;;;;23.02;nan;94077.72;4765578;30;20495;-75
2022/05/23 02:11:06;;;;;;;4.13;3.83;;;;;;;23.47;nan;94071.00;4760739;30;20558;-75
2022/05/23 02:13:37;;;;;;;5.10;4.80;;;;;;;23.49;nan;94082.19;4748957;30;20294;-75
2022/05/23 02:16:03;;;;;;;4.50;4.17;;;;;;;23.18;nan;94079.94;4753728;30;20485;-75
2022/05/23 02:18:29;;;;;;;4.93;4.40;;;;;;;23.66;nan;94072.88;4747445;30;21117;-74
2022/05/23 02:20:55;;;;;;;3.80;3.60;;;;;;;22.51;nan;94071.09;4747221;30;20506;-74
2022/05/23 02:23:20;;;;;;;4.23;3.40;;;;;;;22.62;nan;94075.25;4756032;30;20188;-75
2022/05/23 02:25:46;;;;;;;4.70;4.40;;;;;;;23.23;nan;94080.94;4764825;30;20199;-74
2022/05/23 02:28:12;;;;;;;4.47;4.10;;;;;;;23.31;nan;94082.97;4749033;30;20217;-75
2022/05/23 02:30:38;;;;;;;4.87;4.57;;;;;;;23.36;nan;94073.00;4764919;30;20207;-74
2022/05/23 02:33:03;;;;;;;5.20;4.90;;;;;;;23.92;nan;94075.94;4746561;30;20518;-75
2022/05/23 02:35:29;;;;;;;4.87;4.57;;;;;;;24.21;nan;94077.59;4764974;30;20187;-75
2022/05/23 02:37:55;;;;;;;4.90;4.37;;;;;;;23.33;nan;94083.47;4760724;30;20191;-75
2022/05/23 02:40:20;;;;;;;5.10;4.80;;;;;;;23.68;nan;94081.38;4764967;30;20274;-74
2022/05/23 02:42:45;;;;;;;4.93;3.80;;;;;;;23.02;nan;94072.38;4757387;30;20214;-75
2022/05/23 02:45:11;;;;;;;4.70;4.30;;;;;;;23.42;nan;94076.41;4764832;30;20199;-75
2022/05/23 02:47:37;;;;;;;5.70;5.30;;;;;;;23.02;nan;94077.72;4748791;30;20222;-74
2022/05/23 02:50:03;;;;;;;5.17;4.77;;;;;;;23.17;nan;94074.88;4762182;30;20256;-74
2022/05/23 02:52:28;;;;;;;5.33;4.90;;;;;;;23.17;nan;94067.66;4759331;30;20191;-74
2022/05/23 02:54:54;;;;;;;5.07;4.77;;;;;;;23.69;nan;94077.59;4741577;30;20486;-74
2022/05/23 02:57:19;;;;;;;4.90;4.60;;;;;;;23.76;nan;94083.38;4747125;30;20188;-75
2022/05/23 02:59:45;;;;;;;4.70;4.40;;;;;;;24.12;nan;94074.81;4750058;30;20242;-75
2022/05/23 03:04:54;;;;;;;5.60;5.20;;;;;;;23.97;nan;94082.00;4750272;30;20266;-75
2022/05/23 03:07:20;;;;;;;5.20;4.87;;;;;;;23.97;nan;94075.88;4746581;30;20469;-74
2022/05/23 03:09:45;;;;;;;5.37;4.97;;;;;;;24.03;nan;94063.22;4751516;30;20195;-76
2022/05/23 03:12:12;;;;;;;4.50;4.20;;;;;;;24.10;nan;94066.31;4764244;30;20294;-75
2022/05/23 03:14:37;;;;;;;5.40;5.00;;;;;;;24.73;nan;94072.94;4764152;30;20653;-74
2022/05/23 03:17:05;;;;;;;5.00;4.70;;;;;;;24.53;nan;94068.78;4758488;30;20525;-74
2022/05/23 03:19:31;;;;;;;5.13;4.43;;;;;;;24.51;nan;94065.56;4756912;30;20195;-75
2022/05/23 03:27:25;;;;;;;5.97;5.47;;;;;;;24.36;nan;94048.72;4757966;30;20511;-74
2022/05/23 03:29:51;;;;;;;7.63;5.73;;;;;;;24.80;nan;94054.59;4757953;30;20453;-75
2022/05/23 03:32:17;;;;;;;5.20;4.70;;;;;;;24.32;nan;94058.44;4746956;30;20529;-74
2022/05/23 03:34:42;;;;;;;5.33;4.80;;;;;;;24.45;nan;94053.38;4746144;30;20200;-75
2022/05/23 03:37:08;;;;;;;5.13;4.63;;;;;;;24.32;nan;94063.78;4753199;30;20859;-74
2022/05/23 03:39:36;;;;;;;6.70;5.37;;;;;;;24.68;nan;94073.03;4752137;30;20282;-75
2022/05/23 03:42:02;;;;;;;5.60;5.10;;;;;;;24.96;nan;94065.00;4746507;30;20195;-75
2022/05/23 03:44:28;;;;;;;5.37;4.87;;;;;;;24.75;nan;94066.19;4745062;30;20434;-75
2022/05/23 03:46:54;;;;;;;5.00;4.50;;;;;;;25.01;nan;94054.97;4763182;30;20198;-75
2022/05/23 03:49:19;;;;;;;6.10;5.50;;;;;;;24.36;nan;94042.59;4747323;30;20449;-75
2022/05/23 03:51:44;;;;;;;5.73;5.23;;;;;;;24.56;nan;94060.16;4759814;30;20258;-74
2022/05/23 03:54:10;;;;;;;6.30;5.30;;;;;;;24.43;nan;94068.94;4763909;30;20194;-73
2022/05/23 03:56:35;;;;;;;5.43;4.83;;;;;;;24.71;nan;94070.56;4744526;30;20211;-75
2022/05/23 03:59:01;;;;;;;8.20;4.53;;;;;;;23.95;nan;94060.09;4745970;30;20220;-74
2022/05/23 04:01:27;;;;;;;5.03;4.63;;;;;;;24.62;nan;94064.31;4772473;30;20198;-75
2022/05/23 04:03:53;;;;;;;4.83;4.30;;;;;;;25.30;nan;94069.94;4778097;30;20250;-75
2022/05/23 04:06:18;;;;;;;4.67;4.37;;;;;;;24.79;nan;94071.75;4762058;30;20809;-74
2022/05/23 04:08:43;;;;;;;4.93;4.50;;;;;;;24.38;nan;94067.16;4759343;30;20235;-74
2022/05/23 04:11:09;;;;;;;4.50;4.10;;;;;;;24.91;nan;94063.22;4761001;30;20199;-75
2022/05/23 04:13:35;;;;;;;7.07;5.70;;;;;;;25.42;nan;94062.19;4762509;30;20642;-74
2022/05/23 04:16:01;;;;;;;5.13;4.57;;;;;;;26.02;nan;94076.34;4763514;30;20195;-75
2022/05/23 04:18:27;;;;;;;5.00;4.60;;;;;;;25.26;nan;94068.94;4763129;30;20429;-75
2022/05/23 04:20:52;;;;;;;13.30;5.83;;;;;;;26.58;nan;94064.19;4762775;30;20633;-75
2022/05/23 04:23:18;;;;;;;6.23;4.43;;;;;;;26.41;nan;94064.13;4746832;30;20203;-75
2022/05/23 04:25:48;;;;;;;4.90;4.50;;;;;;;26.87;nan;94052.16;4758950;30;20202;-75
2022/05/23 04:28:16;;;;;;;4.20;3.73;;;;;;;25.60;nan;94063.09;4745525;30;20211;-75
2022/05/23 04:30:43;;;;;;;7.97;3.60;;;;;;;26.74;nan;94063.81;4746886;30;20450;-74
2022/05/23 04:35:57;;;;;;;6.80;4.07;;;;;;;26.12;nan;94062.69;4751214;30;20453;-74
2022/05/23 04:38:22;;;;;;;4.63;2.90;;;;;;;25.50;nan;94069.47;4747721;30;20446;-75
2022/05/23 04:40:48;;;;;;;3.60;3.17;;;;;;;26.00;nan;94067.84;4757921;30;20453;-74
2022/05/23 04:43:14;;;;;;;3.80;3.10;;;;;;;25.62;nan;94066.25;4752553;30;20310;-75
2022/05/23 04:45:39;;;;;;;4.23;2.40;;;;;;;26.40;nan;94062.53;4759171;30;20206;-75
2022/05/23 04:50:49;;;;;;;3.53;2.73;;;;;;;26.01;nan;94047.94;4755079;30;20297;-74
2022/05/23 04:53:15;;;;;;;4.90;3.30;;;;;;;25.63;nan;94040.25;4751696;30;20458;-75
2022/05/23 04:55:41;;;;;;;3.20;2.97;;;;;;;26.07;nan;94041.38;4748847;30;20211;-75
2022/05/23 04:58:07;;;;;;;5.83;3.40;;;;;;;25.76;nan;94043.97;4759407;30;20198;-75
2022/05/23 05:00:33;;;;;;;3.67;3.43;;;;;;;25.87;nan;94051.47;4761226;30;20461;-75
2022/05/23 05:02:59;;;;;;;3.73;2.80;;;;;;;26.11;nan;94039.66;4764862;30;20444;-75
2022/05/23 05:05:27;;;;;;;3.10;2.90;;;;;;;26.62;nan;94051.75;4766105;30;20441;-75
2022/05/23 05:07:53;;;;;;;3.10;2.63;;;;;;;25.41;nan;94049.06;4766054;30;20227;-74
2022/05/23 05:10:21;;;;;;;2.40;2.20;;;;;;;25.64;nan;94037.28;4757734;30;20470;-74
2022/05/23 05:12:48;;;;;;;3.10;2.70;;;;;;;26.56;nan;94039.56;4748377;30;20426;-75
2022/05/23 05:15:13;;;;;;;4.47;3.70;;;;;;;26.83;nan;94037.78;4756858;30;20468;-75
2022/05/23 05:17:39;;;;;;;6.43;2.20;;;;;;;26.08;nan;94038.38;4765909;30;20435;-75
2022/05/23 05:20:05;;;;;;;10.90;2.87;;;;;;;26.66;nan;94035.84;4765647;30;20203;-75
2022/05/23 05:22:31;;;;;;;3.53;2.57;;;;;;;27.07;nan;94034.66;4747009;30;20190;-74
2022/05/23 05:24:57;;;;;;;16.03;4.53;;;;;;;27.11;nan;94041.00;4746640;30;20426;-74
2022/05/23 05:27:22;;;;;;;6.73;3.00;;;;;;;26.90;nan;94035.44;4764954;30;20495;-75
2022/05/23 05:29:48;;;;;;;3.43;2.47;;;;;;;26.34;nan;94031.56;4757633;30;20203;-76
2022/05/23 05:32:26;;;;;;;2.80;2.60;;;;;;;26.73;nan;94030.00;4761886;30;20306;-75
2022/05/23 05:34:59;;;;;;;9.57;3.63;;;;;;;27.05;nan;94020.75;4766027;30;20185;-75
2022/05/23 05:37:31;;;;;;;4.67;3.37;;;;;;;26.40;nan;94028.44;4753679;30;20430;-74
2022/05/23 05:40:02;;;;;;;2.97;2.63;;;;;;;26.96;nan;94036.88;4757873;30;20440;-75
2022/05/23 05:42:34;;;;;;;2.80;2.47;;;;;;;26.41;nan;94037.28;4748373;30;20500;-74
2022/05/23 05:45:07;;;;;;;3.90;2.37;;;;;;;27.81;nan;94049.09;4754321;30;20516;-75
2022/05/23 05:47:36;;;;;;;3.87;2.20;;;;;;;27.07;nan;94031.97;4748296;30;20524;-75
2022/05/23 05:50:08;;;;;;;2.83;2.00;;;;;;;26.94;nan;94055.19;4758566;30;20445;-75
2022/05/23 05:52:34;;;;;;;2.20;2.00;;;;;;;26.69;nan;94048.63;4781645;30;20435;-75
2022/05/23 05:55:03;;;;;;;2.40;2.20;;;;;;;26.01;nan;94045.25;4761486;30;20507;-75
2022/05/23 05:57:30;;;;;;;3.73;2.50;;;;;;;26.43;nan;94053.88;4765429;30;20425;-75
2022/05/23 05:59:55;;;;;;;5.20;2.80;;;;;;;26.55;nan;94055.97;4772943;30;20450;-75
2022/05/23 06:02:21;;;;;;;3.93;3.07;;;;;;;26.32;nan;94055.25;4773815;30;20466;-74
2022/05/23 06:04:47;;;;;;;8.13;4.30;;;;;;;26.79;nan;94052.94;4749340;30;20244;-75
2022/05/23 06:12:53;;;;;;;6.37;3.23;;;;;;;27.60;nan;94046.28;4760592;30;20809;-75
2022/05/23 06:15:19;;;;;;;5.97;2.50;;;;;;;27.79;nan;94038.69;4749178;30;20533;-75
2022/05/23 06:17:44;;;;;;;3.67;2.77;;;;;;;26.98;nan;94040.03;4765326;30;20180;-75
2022/05/23 06:20:14;;;;;;;4.13;2.70;;;;;;;27.31;nan;94034.25;4758296;30;20518;-75
2022/05/23 06:22:40;;;;;;;2.50;2.30;;;;;;;27.81;nan;94028.41;4741687;30;20203;-76
2022/05/23 06:25:08;;;;;;;4.40;3.10;;;;;;;27.43;nan;94026.38;4752220;30;20444;-75
2022/05/23 06:27:34;;;;;;;12.00;3.00;;;;;;;27.80;nan;94026.81;4762890;30;20211;-75
2022/05/23 06:29:59;;;;;;;3.73;3.37;;;;;;;27.39;nan;94032.66;4754829;30;20472;-76
2022/05/23 06:32:24;;;;;;;3.67;3.33;;;;;;;27.70;nan;94024.47;4755343;30;20206;-75
2022/05/23 06:34:50;;;;;;;5.00;3.20;;;;;;;27.03;nan;94036.38;4747532;30;20195;-75
2022/05/23 06:37:16;;;;;;;5.03;2.40;;;;;;;27.72;nan;94024.94;4747238;30;20201;-75
2022/05/23 06:39:41;;;;;;;4.23;3.83;;;;;;;28.11;nan;94012.38;4770888;30;20257;-75
2022/05/23 06:42:07;;;;;;;4.60;3.23;;;;;;;28.79;nan;94019.75;4747290;30;20197;-75
2022/05/23 06:44:33;;;;;;;3.73;2.60;;;;;;;28.03;nan;94013.97;4747084;30;20259;-75
2022/05/23 06:46:59;;;;;;;4.03;2.60;;;;;;;28.39;nan;94012.75;4731416;30;20211;-75
2022/05/23 06:49:25;;;;;;;7.10;3.33;;;;;;;28.11;nan;94009.69;4744670;30;20478;-75
2022/05/23 06:51:52;;;;;;;5.77;2.80;;;;;;;27.80;nan;94016.06;4746820;30;20262;-75
2022/05/23 06:54:22;;;;;;;3.10;2.40;;;;;;;27.83;nan;94015.41;4753407;30;20972;-75
2022/05/23 06:56:48;;;;;;;13.63;4.10;;;;;;;28.12;nan;94023.94;4747999;30;20487;-75
2022/05/23 06:59:15;;;;;;;11.20;3.23;;;;;;;29.13;nan;94013.38;4760314;30;20421;-74
2022/05/23 07:01:41;;;;;;;2.70;2.50;;;;;;;28.98;nan;94025.50;4764727;30;20441;-75
2022/05/23 07:04:06;;;;;;;4.43;2.83;;;;;;;28.03;nan;94019.34;4744371;30;20498;-75
2022/05/23 07:14:44;;;;;;;2.67;2.20;;;;;;;27.75;nan;94018.13;4750480;30;20525;-75
2022/05/23 07:17:09;;;;;;;2.47;2.27;;;;;;;27.53;nan;94014.50;4750570;30;20438;-74
2022/05/23 07:19:37;;;;;;;3.10;2.90;;;;;;;28.26;nan;94035.28;4762824;30;20195;-75
2022/05/23 07:22:03;;;;;;;4.03;3.63;;;;;;;28.42;nan;94019.41;4754542;30;20678;-75
2022/05/23 07:24:31;;;;;;;10.73;3.80;;;;;;;28.47;nan;94015.75;4764058;30;20955;-74
2022/05/23 07:26:57;;;;;;;3.37;3.07;;;;;;;28.41;nan;94020.53;4759723;30;20463;-75
2022/05/23 07:29:23;;;;;;;3.47;2.30;;;;;;;28.22;nan;94016.28;4763588;30;20493;-75
2022/05/23 07:31:49;;;;;;;2.73;2.40;;;;;;;28.27;nan;94022.63;4764273;30;20803;-74
2022/05/23 07:34:15;;;;;;;2.83;2.63;;;;;;;28.90;nan;94017.47;4763113;30;20282;-75
2022/05/23 07:36:40;;;;;;;8.10;3.50;;;;;;;29.57;nan;94007.66;4746860;30;20443;-74
2022/05/23 07:39:09;;;;;;;3.97;2.30;;;;;;;29.29;nan;94005.53;4749510;30;20188;-75
2022/05/23 07:41:35;;;;;;;4.87;2.60;;;;;;;29.26;nan;94002.69;4746272;30;20204;-75
2022/05/23 07:44:01;;;;;;;2.47;2.27;;;;;;;29.54;nan;94021.81;4745691;30;20438;-75
2022/05/23 07:46:26;;;;;;;3.00;2.10;;;;;;;30.45;nan;94002.22;4762000;30;20218;-75
2022/05/23 07:48:52;;;;;;;2.83;2.53;;;;;;;30.07;nan;94004.06;4763381;30;20526;-74
2022/05/23 07:51:19;;;;;;;3.80;3.20;;;;;;;30.24;nan;94013.06;4762934;30;20254;-75
2022/05/23 08:01:58;;;;;;;3.87;2.60;;;;;;;29.63;nan;94009.03;4759758;30;20487;-75
2022/05/23 08:04:25;;;;;;;3.47;3.10;;;;;;;29.71;nan;94023.56;4763658;30;20422;-75
2022/05/23 08:06:52;;;;;;;2.63;2.30;;;;;;;30.19;nan;94022.19;4758918;30;20453;-75
2022/05/23 08:09:18;;;;;;;4.27;2.33;;;;;;;28.69;nan;94022.81;4762248;30;20500;-75
2022/05/23 08:11:46;;;;;;;3.53;2.60;;;;;;;28.89;nan;94010.50;4746732;30;20514;-75
2022/05/23 08:14:12;;;;;;;6.47;2.53;;;;;;;29.10;nan;94021.31;4729733;30;20192;-75
2022/05/23 08:16:38;;;;;;;5.70;2.87;;;;;;;28.39;nan;94009.28;4746876;30;20543;-75
2022/05/23 08:19:07;;;;;;;4.37;1.80;;;;;;;27.48;nan;94001.22;4759084;30;20192;-75
2022/05/23 08:21:34;;;;;;;2.33;2.13;;;;;;;28.98;nan;94013.94;4745890;30;20257;-75
2022/05/23 08:24:00;;;;;;;5.23;3.20;;;;;;;28.42;nan;94014.81;4745759;30;20426;-76
2022/05/23 08:26:27;;;;;;;4.87;2.70;;;;;;;27.51;nan;94013.22;4744385;30;20520;-75
2022/05/23 08:28:53;;;;;;;4.77;3.00;;;;;;;27.80;nan;94016.06;4764660;30;20709;-75
2022/05/23 08:31:19;;;;;;;2.97;2.10;;;;;;;28.01;nan;94010.81;4752824;30;20449;-75
2022/05/23 08:33:44;;;;;;;1.97;1.87;;;;;;;28.81;nan;94010.22;4745864;30;20441;-75
2022/05/23 08:36:10;;;;;;;5.50;2.57;;;;;;;29.00;nan;94003.63;4748118;30;20462;-75
2022/05/23 08:38:36;;;;;;;2.33;2.00;;;;;;;28.76;nan;93993.44;4760113;30;20251;-75
2022/05/23 08:41:18;;;;;;;3.53;1.93;;;;;;;28.09;nan;94003.06;4759364;30;20203;-75
2022/05/23 08:44:02;;;;;;;4.57;2.47;;;;;;;28.55;nan;93999.59;4762785;30;20421;-75
2022/05/23 08:46:58;;;;;;;2.07;1.97;;;;;;;27.56;nan;93989.66;4762294;30;20453;-75
2022/05/23 08:49:32;;;;;;;3.27;2.77;;;;;;;30.08;nan;94016.41;4752247;30;20488;-75
2022/05/23 08:52:06;;;;;;;3.93;2.00;;;;;;;30.66;nan;94007.56;4745179;30;20496;-75
2022/05/23 08:54:40;;;;;;;2.20;1.80;;;;;;;28.45;nan;93989.13;4748741;30;20470;-75
2022/05/23 08:57:16;;;;;;;4.93;2.03;;;;;;;28.56;nan;94009.25;4754621;30;20446;-75
2022/05/23 08:59:46;;;;;;;2.07;1.87;;;;;;;29.30;nan;94003.59;4745455;30;20413;-75
2022/05/23 09:02:33;;;;;;;3.30;1.77;;;;;;;29.63;nan;93990.16;4759928;30;20467;-74
2022/05/23 09:05:05;;;;;;;2.60;2.40;;;;;;;30.34;nan;93985.69;4733674;30;20470;-75
2022/05/23 09:07:41;;;;;;;2.60;1.73;;;;;;;29.22;nan;93986.38;4729404;30;21086;-75
2022/05/23 09:10:43;;;;;;;3.10;1.90;;;;;;;29.62;nan;93993.22;4745241;30;20438;-74
2022/05/23 09:13:09;;;;;;;3.53;2.30;;;;;;;31.01;nan;93985.47;4746757;30;20468;-75
2022/05/23 09:15:35;;;;;;;4.50;2.50;;;;;;;31.47;nan;93980.66;4750332;30;20457;-75
2022/05/23 09:18:06;;;;;;;2.50;1.83;;;;;;;30.24;nan;93975.28;4745335;30;20449;-75
2022/05/23 09:20:50;;;;;;;1.90;1.60;;;;;;;30.05;nan;93978.50;4745000;30;20954;-75
2022/05/23 09:23:26;;;;;;;3.23;2.57;;;;;;;31.61;nan;93980.28;4756367;30;20440;-75
2022/05/23 09:25:53;;;;;;;3.10;2.43;;;;;;;32.58;nan;93970.03;4759890;30;20457;-75
2022/05/23 09:28:19;;;;;;;1.97;1.77;;;;;;;30.04;nan;93953.44;4757664;30;20511;-75
2022/05/23 09:30:48;;;;;;;2.27;1.80;;;;;;;29.53;nan;93969.00;4748363;30;20819;-75
2022/05/23 09:33:18;;;;;;;2.27;2.10;;;;;;;30.15;nan;93975.41;4747843;30;20473;-75
2022/05/23 09:35:46;;;;;;;2.17;1.97;;;;;;;30.45;nan;93959.81;4748445;30;20951;-75
2022/05/23 09:38:14;;;;;;;2.67;1.63;;;;;;;30.52;nan;93954.63;4765551;30;20827;-75
2022/05/23 09:40:40;;;;;;;3.20;2.10;;;;;;;30.27;nan;93958.41;4757940;30;20469;-75
2022/05/23 09:49:12;;;;;;;2.17;1.97;;;;;;;30.66;nan;93916.47;4750622;30;20493;-74
2022/05/23 09:52:02;;;;;;;5.80;3.07;;;;;;;30.15;nan;93965.38;4764887;30;20534;-75
2022/05/23 09:54:56;;;;;;;4.90;2.33;;;;;;;30.97;nan;93947.53;4757378;30;20928;-75
2022/05/23 09:57:26;;;;;;;16.77;3.50;;;;;;;31.39;nan;93949.09;4749696;30;20848;-75
2022/05/23 10:00:00;;;;;;;3.43;2.03;;;;;;;31.26;nan;93948.34;4749179;30;20435;-75
2022/05/23 10:02:39;;;;;;;2.10;2.00;;;;;;;31.26;nan;93942.94;4747688;30;20407;-74
2022/05/23 10:05:21;;;;;;;5.13;2.47;;;;;;;29.71;nan;93921.88;4764466;30;20461;-74
2022/05/23 10:07:54;;;;;;;6.53;1.90;;;;;;;30.93;nan;93946.63;4761573;30;20469;-75
2022/05/23 10:10:25;;;;;;;5.37;2.40;;;;;;;31.27;nan;93947.22;4765626;30;20524;-75
2022/05/23 10:13:10;;;;;;;1.90;1.70;;;;;;;30.24;nan;93954.50;4753445;30;20439;-75
2022/05/23 10:15:43;;;;;;;2.73;2.13;;;;;;;29.70;nan;93949.94;4752553;30;20478;-75
2022/05/23 10:18:16;;;;;;;9.00;2.27;;;;;;;30.46;nan;93947.88;4764832;30;20429;-75
2022/05/23 10:20:42;;;;;;;1.97;1.83;;;;;;;30.75;nan;93929.84;4748802;30;20437;-75
2022/05/23 10:23:20;;;;;;;5.00;2.47;;;;;;;30.04;nan;93928.38;4759545;30;20460;-75
2022/05/23 10:26:06;;;;;;;5.20;2.60;;;;;;;30.20;nan;93929.25;4748428;30;20487;-74
2022/05/23 10:29:01;;;;;;;2.73;2.30;;;;;;;30.51;nan;93934.16;4763073;30;20617;-75
2022/05/23 10:31:35;;;;;;;2.20;2.10;;;;;;;31.96;nan;93937.13;4747272;30;20957;-75
2022/05/23 10:34:32;;;;;;;2.77;1.77;;;;;;;30.76;nan;93934.13;4762000;30;20517;-75
2022/05/23 10:37:00;;;;;;;1.97;1.87;;;;;;;30.53;nan;93926.50;4747319;30;20911;-75
2022/05/23 10:42:43;;;;;;;6.20;2.00;;;;;;;30.96;nan;93905.41;4747991;30;20942;-75
2022/05/23 10:45:20;;;;;;;2.90;2.00;;;;;;;31.20;nan;93911.88;4746833;30;20461;-75
2022/05/23 10:47:54;;;;;;;3.13;1.90;;;;;;;31.35;nan;93923.88;4757594;30;20529;-75
2022/05/23 10:50:22;;;;;;;3.17;1.90;;;;;;;31.65;nan;93916.22;4764448;30;20490;-75
2022/05/23 10:53:18;;;;;;;3.83;2.00;;;;;;;31.87;nan;93915.66;4759796;30;20448;-75
2022/05/23 10:55:55;;;;;;;2.17;2.00;;;;;;;31.57;nan;93903.63;4730704;30;20503;-75
2022/05/23 10:58:40;;;;;;;3.30;2.30;;;;;;;31.21;nan;93892.59;4747062;30;20541;-74
2022/05/23 11:01:39;;;;;;;1.70;1.60;;;;;;;31.77;nan;93899.91;4761351;30;20446;-74
2022/05/23 11:04:44;;;;;;;2.00;1.90;;;;;;;32.09;nan;93918.91;4754223;30;20440;-75
2022/05/23 11:07:33;;;;;;;2.13;1.90;;;;;;;32.25;nan;93910.78;4705312;30;20482;-75
2022/05/23 11:10:13;;;;;;;2.20;1.73;;;;;;;33.39;nan;93919.91;4747391;30;20492;-75
2022/05/23 11:13:00;;;;;;;4.00;1.90;;;;;;;32.88;nan;93915.34;4757174;30;20440;-75
2022/05/23 11:15:38;;;;;;;2.30;1.70;;;;;;;32.37;nan;93916.13;4750860;30;20450;-75
2022/05/23 11:18:06;;;;;;;8.03;2.13;;;;;;;30.98;nan;93905.06;4741485;30;20439;-76
2022/05/23 11:20:35;;;;;;;4.40;2.37;;;;;;;31.96;nan;93901.94;4752454;30;20463;-76
2022/05/23 11:23:29;;;;;;;4.40;2.20;;;;;;;32.29;nan;93900.84;4763590;30;20433;-75
2022/05/23 11:26:09;;;;;;;3.80;1.80;;;;;;;32.28;nan;93901.97;4757556;30;20445;-76
2022/05/23 11:34:34;;;;;;;2.50;1.67;;;;;;;31.27;nan;93901.25;4757007;30;20766;-75
2022/05/23 11:39:53;;;;;;;4.80;2.40;;;;;;;32.44;nan;93907.34;4747609;30;20479;-75
2022/05/23 11:42:24;;;;;;;3.27;2.17;;;;;;;32.49;nan;93893.56;4759406;30;20447;-75
2022/05/23 11:44:50;;;;;;;3.40;1.90;;;;;;;30.77;nan;93903.28;4746116;30;20440;-76
2022/05/23 11:47:24;;;;;;;6.20;2.60;;;;;;;31.51;nan;93889.56;4752415;30;20456;-75
2022/05/23 11:50:16;;;;;;;3.03;2.20;;;;;;;30.97;nan;93876.47;4763531;30;20292;-75
2022/05/23 11:52:47;;;;;;;5.20;1.90;;;;;;;31.97;nan;93902.72;4781674;30;20479;-75
2022/05/23 11:55:50;;;;;;;3.63;1.80;;;;;;;32.22;nan;93917.69;4778846;30;20435;-75
2022/05/23 11:58:32;;;;;;;2.37;2.17;;;;;;;31.52;nan;93889.22;4780383;30;20481;-75
2022/05/23 12:01:14;;;;;;;2.23;1.93;;;;;;;31.87;nan;93912.13;4769036;30;20458;-75
2022/05/23 12:03:52;;;;;;;3.27;1.73;;;;;;;31.93;nan;93905.34;4763768;30;20475;-75
2022/05/23 12:06:20;;;;;;;6.20;2.10;;;;;;;31.54;nan;93899.69;4773749;30;20461;-75
2022/05/23 12:09:13;;;;;;;6.50;1.83;;;;;;;32.47;nan;93914.78;4777274;30;20542;-75
2022/05/23 12:11:41;;;;;;;1.90;1.70;;;;;;;32.92;nan;93899.94;4780064;30;20535;-75
2022/05/23 12:14:21;;;;;;;2.63;1.80;;;;;;;31.98;nan;93905.06;4780645;30;20441;-76
2022/05/23 12:16:49;;;;;;;2.30;2.20;;;;;;;32.48;nan;93909.03;4763497;30;20452;-75
2022/05/23 12:19:33;;;;;;;6.70;2.27;;;;;;;32.36;nan;93900.22;4763221;30;20905;-75
2022/05/23 12:22:23;;;;;;;10.17;2.53;;;;;;;33.16;nan;93892.69;4773314;30;20469;-75
2022/05/23 12:25:15;;;;;;;6.87;2.23;;;;;;;32.79;nan;93891.16;4772814;30;20450;-76
2022/05/23 12:27:43;;;;;;;2.77;2.57;;;;;;;32.39;nan;93873.22;4765637;30;20531;-75
2022/05/23 12:30:18;;;;;;;5.60;2.20;;;;;;;31.69;nan;93884.63;4768573;30;20462;-75
2022/05/23 12:32:47;;;;;;;1.50;1.40;;;;;;;30.91;nan;93901.03;4766378;30;20465;-74
2022/05/23 12:35:16;;;;;;;2.13;2.03;;;;;;;30.74;nan;93887.75;4780851;30;20465;-75
2022/05/23 12:38:18;;;;;;;1.80;1.70;;;;;;;32.06;nan;93892.53;4781099;30;20427;-75
2022/05/23 12:41:10;;;;;;;2.53;2.33;;;;;;;31.01;nan;93885.47;4772473;30;20487;-75
2022/05/23 12:44:04;;;;;;;2.10;1.60;;;;;;;32.36;nan;93892.84;4777235;30;20445;-75
2022/05/23 12:46:51;;;;;;;4.03;2.67;;;;;;;32.65;nan;93898.97;4762979;30;20452;-75
2022/05/23 12:49:31;;;;;;;2.47;2.27;;;;;;;34.83;nan;93903.38;4762471;30;20560;-75
2022/05/23 12:52:32;;;;;;;3.23;1.97;;;;;;;34.37;nan;93891.41;4764551;30;20544;-75
2022/05/23 12:55:16;;;;;;;3.40;2.40;;;;;;;34.62;nan;93880.13;4728010;30;20789;-75
2022/05/23 12:58:05;;;;;;;3.83;1.80;;;;;;;33.95;nan;93897.69;4739001;30;20425;-76
2022/05/23 13:00:35;;;;;;;2.50;2.30;;;;;;;32.82;nan;93887.75;4755642;30;20465;-73
2022/05/23 13:03:18;;;;;;;5.77;3.60;;;;;;;31.81;nan;93878.34;4748260;30;20438;-76
2022/05/23 13:05:55;;;;;;;4.00;2.57;;;;;;;32.24;nan;93896.47;4750746;30;20544;-75
2022/05/23 13:08:25;;;;;;;4.40;1.97;;;;;;;30.65;nan;93879.78;4766605;30;20471;-75